< < Back
Terminal Aerodrome Forecast


Current Version              Previous Versions:   1  2  3  4  5  6  7  8  9  

Terminal Aerodrome Forecast

005
FTUS42 KCAE 050300 AAA
TAFAGS
TAF AMD
KAGS 050305Z 0503/0524 20006KT P6SM BKN080
     FM050700 21008KT 4SM BR OVC010
     FM050900 22008KT 2SM BR OVC003
     FM051400 24012G20KT P6SM OVC015
     FM051800 26015G22KT 4SM -SHRA OVC025
     FM052100 32010KT P6SM -RA OVC015=



Latest METAR

867
SAUS70 KWBC 050400 RRB
MTRAGS
METAR KAGS 050353Z 21011KT 10SM CLR 21/14 A2996 RMK AO2 SLP143
T02110139


USA.gov is the U.S. government's official web portal to all federal, state and local government web resources and services.